Time;durP1;ratioP1;P1;durP2;ratioP2;P2;SDS_P1;SDS_P2;PMS_P1;PMS_P2;Temp;Humidity;BMP_temperature;BMP_pressure;BME280_temperature;BME280_humidity;BME280_pressure;Samples;Min_cycle;Max_cycle;Signal;HPM_P1;HPM_P2
2022/04/22 00:00:27;;;;;;;5.10;4.60;;;9.30;99.90;;;;;;4947434;28;20485;-75
2022/04/22 00:02:54;;;;;;;5.95;4.32;;;9.40;99.90;;;;;;4941643;28;20040;-74
2022/04/22 00:05:19;;;;;;;4.85;4.32;;;9.30;99.90;;;;;;4955268;28;20023;-76
2022/04/22 00:07:45;;;;;;;5.40;4.57;;;9.20;99.90;;;;;;4964086;28;20030;-75
2022/04/22 00:10:11;;;;;;;5.63;4.95;;;9.30;99.90;;;;;;4956202;28;20382;-75
2022/04/22 00:12:37;;;;;;;5.10;4.60;;;9.20;99.90;;;;;;4954961;28;20031;-75
2022/04/22 00:15:04;;;;;;;5.53;4.90;;;9.00;99.90;;;;;;4954464;28;20042;-76
2022/04/22 00:17:30;;;;;;;5.32;4.80;;;8.90;99.90;;;;;;4952241;28;20026;-75
2022/04/22 00:19:55;;;;;;;6.28;4.38;;;8.90;99.90;;;;;;4956045;28;20082;-76
2022/04/22 00:22:21;;;;;;;5.97;5.38;;;8.80;99.90;;;;;;4952353;28;20035;-75
2022/04/22 00:24:46;;;;;;;5.63;4.88;;;8.80;99.90;;;;;;4956179;28;20033;-75
2022/04/22 00:27:12;;;;;;;7.03;4.50;;;8.70;99.90;;;;;;4956267;28;20023;-76
2022/04/22 00:29:37;;;;;;;6.30;4.97;;;8.70;99.90;;;;;;4938295;29;20438;-77
2022/04/22 00:32:03;;;;;;;5.32;4.82;;;8.60;99.90;;;;;;4939802;29;20110;-73
2022/04/22 00:34:29;;;;;;;6.88;5.82;;;8.50;99.90;;;;;;4951578;28;20035;-75
2022/04/22 00:36:54;;;;;;;5.40;4.85;;;8.50;99.90;;;;;;4947470;28;20197;-75
2022/04/22 00:39:20;;;;;;;7.30;5.38;;;8.50;99.90;;;;;;4953147;28;20102;-75
2022/04/22 00:41:45;;;;;;;7.28;4.70;;;8.40;99.90;;;;;;4959024;28;20043;-75
2022/04/22 00:44:11;;;;;;;6.13;5.53;;;8.40;99.90;;;;;;4954904;29;20027;-75
2022/04/22 00:46:36;;;;;;;6.70;5.20;;;8.40;99.90;;;;;;4959316;28;20023;-74
2022/04/22 00:49:03;;;;;;;7.78;5.45;;;8.40;99.90;;;;;;4954463;28;20031;-75
2022/04/22 00:51:29;;;;;;;7.95;5.60;;;8.40;99.90;;;;;;4952169;28;20019;-76
2022/04/22 00:53:54;;;;;;;8.15;5.72;;;8.30;99.90;;;;;;4949775;29;20043;-75
2022/04/22 00:56:20;;;;;;;6.05;5.50;;;8.40;99.90;;;;;;4951100;28;20035;-74
2022/04/22 00:58:49;;;;;;;6.97;5.78;;;8.40;99.90;;;;;;4930731;29;20500;-73
2022/04/22 01:01:14;;;;;;;5.90;5.40;;;8.40;99.90;;;;;;4946501;29;20375;-76
2022/04/22 01:09:47;;;;;;;8.75;5.68;;;8.40;99.90;;;;;;4932658;29;20042;-75
2022/04/22 01:12:01;;;;;;;6.68;5.95;;;8.40;99.90;;;;;;4949089;28;20047;-78
2022/04/22 01:14:29;;;;;;;7.25;5.75;;;8.30;99.90;;;;;;4954768;28;20031;-75
2022/04/22 01:16:55;;;;;;;6.88;5.22;;;8.30;99.90;;;;;;4932046;29;20450;-75
2022/04/22 01:19:21;;;;;;;6.35;5.75;;;8.20;99.90;;;;;;4938245;29;20393;-76
2022/04/22 01:21:46;;;;;;;6.50;5.78;;;8.10;99.90;;;;;;4953425;29;20027;-76
2022/04/22 01:24:12;;;;;;;6.15;5.32;;;8.00;99.90;;;;;;4946927;28;20023;-77
2022/04/22 01:26:38;;;;;;;6.65;5.75;;;8.00;99.90;;;;;;4934729;28;20545;-76
2022/04/22 01:29:05;;;;;;;7.00;6.20;;;7.90;99.90;;;;;;4951970;29;20107;-75
2022/04/22 01:31:31;;;;;;;6.45;5.80;;;7.90;99.90;;;;;;4954309;29;20066;-76
2022/04/22 01:33:57;;;;;;;7.13;5.68;;;7.80;99.90;;;;;;4947157;29;20455;-76
2022/04/22 01:36:22;;;;;;;7.45;6.75;;;7.80;99.90;;;;;;4940143;29;20038;-74
2022/04/22 01:38:48;;;;;;;7.43;6.28;;;7.70;99.90;;;;;;4956234;28;20078;-76
2022/04/22 01:41:14;;;;;;;6.78;5.95;;;7.80;99.90;;;;;;4936782;28;20106;-78
2022/04/22 01:43:40;;;;;;;6.90;5.82;;;7.70;99.90;;;;;;4959609;28;20027;-75
2022/04/22 01:46:05;;;;;;;7.00;6.30;;;7.70;99.90;;;;;;4946247;29;20019;-75
2022/04/22 01:48:31;;;;;;;7.57;6.85;;;7.70;99.90;;;;;;4947831;29;20078;-76
2022/04/22 01:50:58;;;;;;;7.60;6.80;;;7.70;99.90;;;;;;4947211;28;20051;-75
2022/04/22 01:53:24;;;;;;;7.75;6.88;;;7.80;99.90;;;;;;4946760;29;20034;-75
2022/04/22 01:55:50;;;;;;;9.05;7.32;;;7.80;99.90;;;;;;4958271;29;20031;-76
2022/04/22 01:58:15;;;;;;;8.63;7.72;;;7.90;99.90;;;;;;4940525;28;20126;-77
2022/04/22 02:00:41;;;;;;;9.23;8.00;;;8.00;99.90;;;;;;4957102;28;20023;-76
2022/04/22 02:03:08;;;;;;;8.73;7.28;;;7.90;99.90;;;;;;4953582;29;20035;-76
2022/04/22 02:05:33;;;;;;;8.75;7.85;;;7.90;99.90;;;;;;4953000;29;20023;-77
2022/04/22 02:07:59;;;;;;;8.77;7.80;;;8.00;99.90;;;;;;4950946;28;20088;-76
2022/04/22 02:10:25;;;;;;;9.80;8.68;;;7.90;99.90;;;;;;4953500;28;20027;-76
2022/04/22 02:12:50;;;;;;;10.32;9.15;;;7.90;99.90;;;;;;4954966;28;20034;-77
2022/04/22 02:15:18;;;;;;;10.13;9.18;;;7.80;99.90;;;;;;4954191;28;20028;-77
2022/04/22 02:17:43;;;;;;;9.48;8.30;;;7.80;99.90;;;;;;4952561;28;20040;-77
2022/04/22 02:20:10;;;;;;;9.85;8.85;;;7.70;99.90;;;;;;4936063;29;20454;-77
2022/04/22 02:22:36;;;;;;;11.50;9.60;;;7.70;99.90;;;;;;4942722;29;20106;-76
2022/04/22 02:25:02;;;;;;;10.32;9.32;;;7.80;99.90;;;;;;4949937;29;20569;-76
2022/04/22 02:30:23;;;;;;;9.40;8.50;;;7.80;99.90;;;;;;4910972;29;20828;-77
2022/04/22 02:32:50;;;;;;;10.75;9.35;;;7.80;99.90;;;;;;4953883;28;20094;-78
2022/04/22 02:35:16;;;;;;;9.23;8.32;;;7.80;99.90;;;;;;4937524;29;20379;-77
2022/04/22 02:37:41;;;;;;;10.85;9.00;;;7.80;99.90;;;;;;4949064;28;20465;-77
2022/04/22 02:40:08;;;;;;;10.80;9.27;;;7.80;99.90;;;;;;4949566;28;20058;-77
2022/04/22 02:45:26;;;;;;;10.68;9.38;;;7.70;99.90;;;;;;4952982;29;20410;-76
2022/04/22 02:47:52;;;;;;;12.18;9.77;;;7.60;99.90;;;;;;4954913;28;20512;-77
2022/04/22 02:50:17;;;;;;;9.80;8.90;;;7.60;99.90;;;;;;4953848;28;20031;-77
2022/04/22 02:52:43;;;;;;;11.25;9.98;;;7.60;99.90;;;;;;4947298;28;20019;-77
2022/04/22 02:55:09;;;;;;;10.25;9.25;;;7.70;99.90;;;;;;4949710;28;20045;-77
2022/04/22 02:57:35;;;;;;;12.70;9.88;;;7.80;99.90;;;;;;4953545;28;20117;-76
2022/04/22 03:00:01;;;;;;;11.40;10.02;;;7.80;99.90;;;;;;4954261;28;20035;-77
2022/04/22 03:02:27;;;;;;;12.02;10.82;;;7.80;99.90;;;;;;4954556;28;20027;-76
2022/04/22 03:04:53;;;;;;;12.48;11.13;;;7.70;99.90;;;;;;4958533;28;20019;-76
2022/04/22 03:07:19;;;;;;;12.48;11.18;;;7.60;99.90;;;;;;4965097;28;20026;-76
2022/04/22 03:09:45;;;;;;;11.63;10.43;;;7.60;99.90;;;;;;4963654;28;20405;-76
2022/04/22 03:12:13;;;;;;;13.93;11.40;;;7.60;99.90;;;;;;4953296;28;20118;-77
2022/04/22 03:14:39;;;;;;;12.32;10.98;;;7.70;99.90;;;;;;4944005;28;20023;-77
2022/04/22 03:17:06;;;;;;;14.05;12.25;;;7.70;99.90;;;;;;4958227;28;20035;-77
2022/04/22 03:19:31;;;;;;;13.30;11.90;;;7.70;99.90;;;;;;4940520;29;20062;-76
2022/04/22 03:21:58;;;;;;;13.70;11.38;;;7.70;99.90;;;;;;4940746;28;20035;-77
2022/04/22 03:24:23;;;;;;;14.07;11.27;;;7.80;99.90;;;;;;4959809;28;20031;-77
2022/04/22 03:26:49;;;;;;;14.35;12.65;;;7.80;99.90;;;;;;4955927;28;20478;-77
2022/04/22 03:29:14;;;;;;;13.40;11.98;;;7.80;99.90;;;;;;4953718;29;20482;-77
2022/04/22 03:31:40;;;;;;;14.00;12.55;;;7.80;99.90;;;;;;4957400;28;20062;-77
2022/04/22 03:34:06;;;;;;;14.45;12.50;;;7.80;99.90;;;;;;4939238;29;20449;-75
2022/04/22 03:36:31;;;;;;;14.63;12.18;;;7.70;99.90;;;;;;4940747;29;20045;-76
2022/04/22 03:38:57;;;;;;;14.85;13.18;;;7.60;99.90;;;;;;4959254;28;20035;-77
2022/04/22 03:41:22;;;;;;;15.00;13.18;;;7.50;99.90;;;;;;4958755;28;20042;-76
2022/04/22 03:43:48;;;;;;;14.68;13.07;;;7.50;99.90;;;;;;4956580;29;20038;-76
2022/04/22 03:46:13;;;;;;;15.98;13.32;;;7.50;99.90;;;;;;4938861;29;20074;-77
2022/04/22 03:48:39;;;;;;;15.85;12.85;;;7.40;99.90;;;;;;4953821;29;20047;-77
2022/04/22 03:51:05;;;;;;;15.27;13.52;;;7.40;99.90;;;;;;4952336;28;20110;-76
2022/04/22 03:53:33;;;;;;;17.40;14.63;;;7.20;99.90;;;;;;4955947;28;20030;-77
2022/04/22 03:58:10;;;;;;;15.18;13.50;;;7.20;99.90;;;;;;4960485;28;20026;-77
2022/04/22 03:58:45;;;;;;;17.40;13.82;;;7.20;99.90;;;;;;4959586;28;20023;-77
2022/04/22 04:01:10;;;;;;;17.83;14.73;;;7.20;99.90;;;;;;4942741;29;20035;-77
2022/04/22 04:03:36;;;;;;;17.65;15.25;;;7.10;99.90;;;;;;4956123;28;20070;-76
2022/04/22 04:06:01;;;;;;;17.08;14.13;;;7.00;99.90;;;;;;4961058;28;20019;-77
2022/04/22 04:08:27;;;;;;;17.42;14.68;;;7.10;99.90;;;;;;4961239;28;20062;-77
2022/04/22 04:16:14;;;;;;;17.85;15.65;;;7.00;99.90;;;;;;4957331;28;20062;-76
2022/04/22 04:18:40;;;;;;;19.00;16.08;;;7.00;99.90;;;;;;4956743;28;20053;-76
2022/04/22 04:23:53;;;;;;;16.60;14.85;;;7.00;99.90;;;;;;4951735;28;20045;-77
2022/04/22 04:26:21;;;;;;;21.05;16.65;;;7.00;99.90;;;;;;4951630;28;20019;-76
2022/04/22 04:28:47;;;;;;;18.90;15.48;;;7.00;99.90;;;;;;4955810;28;20101;-76
2022/04/22 04:31:13;;;;;;;21.92;15.60;;;7.00;99.90;;;;;;4929769;28;20035;-77
2022/04/22 04:33:40;;;;;;;16.63;14.63;;;6.90;99.90;;;;;;4957573;28;20030;-77
2022/04/22 04:36:09;;;;;;;17.05;14.82;;;6.90;99.90;;;;;;4961741;28;20076;-77
2022/04/22 04:38:39;;;;;;;23.92;16.63;;;6.90;99.90;;;;;;4984623;28;20034;-77
2022/04/22 04:41:07;;;;;;;19.15;14.00;;;6.90;99.90;;;;;;4960724;28;20059;-75
2022/04/22 04:43:34;;;;;;;18.00;13.93;;;7.00;99.90;;;;;;4954028;28;20516;-77
2022/04/22 04:45:59;;;;;;;17.75;14.57;;;7.20;99.90;;;;;;4957844;28;20030;-76
2022/04/22 04:48:25;;;;;;;13.57;12.25;;;7.40;99.90;;;;;;4960471;28;20373;-76
2022/04/22 04:50:51;;;;;;;15.20;13.60;;;7.40;99.90;;;;;;4954246;28;20031;-78
2022/04/22 04:53:20;;;;;;;17.95;16.00;;;7.70;99.90;;;;;;4953822;28;20033;-76
2022/04/22 04:55:46;;;;;;;17.45;14.45;;;7.90;99.90;;;;;;4939020;28;20035;-75
2022/04/22 04:58:12;;;;;;;15.88;13.98;;;8.40;99.90;;;;;;4955243;28;20038;-77
2022/04/22 05:00:38;;;;;;;17.80;13.43;;;8.60;99.90;;;;;;4955355;28;20485;-77
2022/04/22 05:03:04;;;;;;;16.98;13.60;;;8.90;99.90;;;;;;4952440;28;20030;-77
2022/04/22 05:05:30;;;;;;;14.30;12.77;;;9.00;99.90;;;;;;4956304;28;20437;-76
2022/04/22 05:08:00;;;;;;;18.75;14.85;;;9.00;99.90;;;;;;4956591;28;20031;-77
2022/04/22 05:10:28;;;;;;;15.15;13.65;;;9.50;99.90;;;;;;4949117;28;20024;-77
2022/04/22 05:12:54;;;;;;;14.95;13.35;;;9.50;99.90;;;;;;4947686;28;20114;-78
2022/04/22 05:15:24;;;;;;;15.32;13.73;;;9.50;99.90;;;;;;4952211;29;20035;-76
2022/04/22 05:17:51;;;;;;;16.38;13.48;;;9.90;99.90;;;;;;4947000;29;20020;-77
2022/04/22 05:20:19;;;;;;;15.50;13.30;;;10.50;99.90;;;;;;4946778;28;20102;-76
2022/04/22 05:22:45;;;;;;;17.83;13.85;;;10.60;99.90;;;;;;4952036;28;20024;-76
2022/04/22 05:25:13;;;;;;;16.52;13.43;;;11.20;99.90;;;;;;4951243;29;20041;-76
2022/04/22 05:27:40;;;;;;;16.67;14.32;;;11.30;99.90;;;;;;4951398;29;20386;-77
2022/04/22 05:32:52;;;;;;;16.02;13.73;;;11.30;99.90;;;;;;4949919;29;20451;-76
2022/04/22 05:35:21;;;;;;;14.63;12.48;;;11.20;99.90;;;;;;4945885;29;20035;-77
2022/04/22 05:37:52;;;;;;;15.55;13.85;;;10.80;99.90;;;;;;4937372;29;20020;-76
2022/04/22 05:40:20;;;;;;;14.32;12.75;;;10.90;99.90;;;;;;4946597;28;20035;-76
2022/04/22 05:42:46;;;;;;;14.80;13.30;;;10.90;99.90;;;;;;4950858;28;20121;-77
2022/04/22 05:45:13;;;;;;;16.17;13.63;;;10.70;99.90;;;;;;4952743;28;20083;-76
2022/04/22 05:47:39;;;;;;;16.30;14.45;;;10.90;99.90;;;;;;4954429;28;20023;-76
2022/04/22 05:50:07;;;;;;;15.43;13.65;;;10.80;99.90;;;;;;4959753;28;20023;-76
2022/04/22 05:52:34;;;;;;;17.15;15.35;;;11.30;99.90;;;;;;4937500;28;20023;-77
2022/04/22 05:55:04;;;;;;;17.23;15.40;;;11.90;99.90;;;;;;4949964;28;20023;-77
2022/04/22 05:57:31;;;;;;;17.67;15.80;;;12.20;99.90;;;;;;4945809;28;20023;-77
2022/04/22 05:59:58;;;;;;;16.88;15.13;;;11.80;99.90;;;;;;4956927;28;20032;-76
2022/04/22 06:02:24;;;;;;;19.08;16.75;;;11.50;99.90;;;;;;4955765;28;20027;-77
2022/04/22 06:04:49;;;;;;;19.90;16.80;;;11.30;99.90;;;;;;4950468;28;20023;-77
2022/04/22 06:07:15;;;;;;;20.63;16.17;;;10.60;99.90;;;;;;4955303;28;20038;-77
2022/04/22 06:12:24;;;;;;;20.33;18.13;;;10.50;99.90;;;;;;4951800;28;20061;-77
2022/04/22 06:14:50;;;;;;;20.17;18.02;;;10.10;99.90;;;;;;4950861;28;20039;-75
2022/04/22 06:17:15;;;;;;;21.83;16.83;;;10.20;99.90;;;;;;4958028;28;20035;-77
2022/04/22 06:19:41;;;;;;;19.52;17.45;;;10.30;99.90;;;;;;4937637;29;20037;-77
2022/04/22 06:22:06;;;;;;;20.73;17.58;;;10.50;99.90;;;;;;4958695;28;20445;-77
2022/04/22 06:24:32;;;;;;;19.38;17.20;;;10.60;99.90;;;;;;4952689;28;20042;-76
2022/04/22 06:26:57;;;;;;;20.73;17.50;;;10.60;99.90;;;;;;4939811;28;20019;-77
2022/04/22 06:29:23;;;;;;;20.10;18.00;;;10.70;99.90;;;;;;4934241;29;20071;-77
2022/04/22 06:31:49;;;;;;;21.80;17.92;;;10.70;99.90;;;;;;4932925;29;20079;-77
2022/04/22 06:34:15;;;;;;;20.35;18.17;;;10.70;99.90;;;;;;4951161;29;20506;-77
2022/04/22 06:36:41;;;;;;;21.40;17.67;;;10.70;99.90;;;;;;4957119;28;20027;-77
2022/04/22 06:39:07;;;;;;;18.95;16.95;;;10.70;99.90;;;;;;4956672;28;20035;-77
2022/04/22 06:47:01;;;;;;;23.85;17.98;;;10.80;99.90;;;;;;4953622;28;20038;-77
2022/04/22 06:49:27;;;;;;;18.83;16.85;;;10.60;99.90;;;;;;4953442;28;20020;-77
2022/04/22 06:51:53;;;;;;;21.02;18.50;;;10.60;99.90;;;;;;4954124;28;20035;-76
2022/04/22 06:54:19;;;;;;;27.33;18.90;;;10.70;99.90;;;;;;4937602;29;20063;-77
2022/04/22 06:56:45;;;;;;;20.30;18.05;;;10.90;99.90;;;;;;4951704;28;20027;-77
2022/04/22 06:59:11;;;;;;;20.58;18.35;;;11.00;99.90;;;;;;4949162;28;20521;-78
2022/04/22 07:01:37;;;;;;;21.45;18.95;;;11.00;99.90;;;;;;4948944;28;20122;-76
2022/04/22 07:04:03;;;;;;;20.13;17.27;;;10.80;99.90;;;;;;4956065;28;20062;-77
2022/04/22 07:06:29;;;;;;;21.02;18.75;;;10.90;99.90;;;;;;4959623;28;20026;-77
2022/04/22 07:08:56;;;;;;;22.92;19.67;;;11.20;99.90;;;;;;4959378;28;20401;-76
2022/04/22 07:11:26;;;;;;;21.55;19.10;;;11.30;99.90;;;;;;4956661;28;20027;-77
2022/04/22 07:13:57;;;;;;;19.63;17.52;;;11.40;99.90;;;;;;4939335;28;20035;-78
2022/04/22 07:16:23;;;;;;;22.27;19.48;;;11.00;99.90;;;;;;4941184;29;20421;-77
2022/04/22 07:18:49;;;;;;;19.40;17.25;;;11.20;99.90;;;;;;4957091;28;20131;-78
2022/04/22 07:21:15;;;;;;;20.98;18.00;;;11.30;99.90;;;;;;4940360;28;20028;-77
2022/04/22 07:23:41;;;;;;;20.77;18.60;;;11.10;99.90;;;;;;4979437;28;20042;-77
2022/04/22 07:26:09;;;;;;;20.42;17.08;;;11.40;99.90;;;;;;4964812;28;20541;-77
2022/04/22 07:28:37;;;;;;;20.02;16.65;;;11.20;99.90;;;;;;4953046;28;20142;-76
2022/04/22 07:31:04;;;;;;;20.25;18.05;;;10.80;99.90;;;;;;4951453;28;20074;-77
2022/04/22 07:33:32;;;;;;;20.05;17.95;;;11.10;99.90;;;;;;4955882;28;20055;-78
2022/04/22 07:35:59;;;;;;;20.80;17.40;;;11.30;99.90;;;;;;4940387;28;20131;-76
2022/04/22 07:38:25;;;;;;;21.58;18.15;;;11.60;99.90;;;;;;4953537;28;20023;-76
2022/04/22 07:40:52;;;;;;;21.05;18.80;;;11.70;99.90;;;;;;4949328;28;20109;-77
2022/04/22 07:48:53;;;;;;;20.77;18.58;;;12.00;99.90;;;;;;4955172;28;20084;-76
2022/04/22 07:51:19;;;;;;;22.35;19.15;;;12.00;99.90;;;;;;4938307;28;20043;-77
2022/04/22 07:53:45;;;;;;;20.58;18.38;;;12.20;99.90;;;;;;4956232;28;20024;-78
2022/04/22 07:56:11;;;;;;;21.58;19.20;;;12.30;99.90;;;;;;4956703;28;20027;-76
2022/04/22 07:58:37;;;;;;;24.20;19.83;;;12.20;99.90;;;;;;4941809;29;20037;-77
2022/04/22 08:01:02;;;;;;;21.90;18.55;;;12.10;99.90;;;;;;4946535;28;20508;-78
2022/04/22 08:03:28;;;;;;;19.70;17.63;;;12.10;99.90;;;;;;4956411;28;20031;-77
2022/04/22 08:05:54;;;;;;;20.77;17.30;;;12.50;99.90;;;;;;4951839;28;20114;-76
2022/04/22 08:08:20;;;;;;;20.40;17.98;;;12.10;99.90;;;;;;4938846;29;20031;-75
2022/04/22 08:10:45;;;;;;;18.63;16.45;;;12.20;99.90;;;;;;4940391;29;20395;-76
2022/04/22 08:13:11;;;;;;;18.85;16.85;;;12.10;99.90;;;;;;4958332;28;20027;-76
2022/04/22 08:15:37;;;;;;;18.63;16.42;;;12.40;99.90;;;;;;4934828;29;20105;-77
2022/04/22 08:18:04;;;;;;;20.13;18.08;;;12.40;99.90;;;;;;4948938;28;20444;-78
2022/04/22 08:20:31;;;;;;;21.70;18.33;;;12.70;99.90;;;;;;4943982;28;20409;-77
2022/04/22 08:22:58;;;;;;;24.02;18.50;;;12.60;99.90;;;;;;4954191;28;20023;-77
2022/04/22 08:25:24;;;;;;;20.17;17.90;;;12.20;99.90;;;;;;4957187;28;20098;-76
2022/04/22 08:27:51;;;;;;;18.58;16.58;;;12.40;99.90;;;;;;4956252;29;20034;-76
2022/04/22 08:30:17;;;;;;;23.15;17.27;;;12.30;99.90;;;;;;4939083;29;20020;-77
2022/04/22 08:32:43;;;;;;;19.00;16.20;;;12.80;99.90;;;;;;4955697;29;20023;-76
2022/04/22 08:35:09;;;;;;;19.20;17.13;;;13.20;99.90;;;;;;4956130;29;20086;-77
2022/04/22 08:37:37;;;;;;;19.88;17.83;;;13.30;99.90;;;;;;4955960;29;20505;-77
2022/04/22 08:40:06;;;;;;;19.20;17.17;;;13.00;99.90;;;;;;4937929;29;20039;-76
2022/04/22 08:42:35;;;;;;;18.67;16.88;;;13.40;99.90;;;;;;4954967;29;20031;-76
2022/04/22 08:45:00;;;;;;;21.73;16.73;;;13.50;99.90;;;;;;4956641;29;20027;-76
2022/04/22 08:50:13;;;;;;;16.48;14.82;;;13.20;99.90;;;;;;4953838;29;20058;-77
2022/04/22 08:52:42;;;;;;;18.17;16.02;;;13.30;99.90;;;;;;4937838;29;20397;-77
2022/04/22 08:55:08;;;;;;;18.20;16.15;;;13.70;99.90;;;;;;4953482;29;20028;-77
2022/04/22 08:57:34;;;;;;;17.05;15.30;;;13.70;99.90;;;;;;4939113;29;20031;-77
2022/04/22 09:00:01;;;;;;;15.48;13.88;;;13.40;99.90;;;;;;4935468;29;20197;-76
2022/04/22 09:02:27;;;;;;;16.88;14.32;;;13.50;99.90;;;;;;4938310;29;20122;-77
2022/04/22 09:04:52;;;;;;;17.50;15.63;;;13.60;99.90;;;;;;4957434;28;20059;-77
2022/04/22 09:07:19;;;;;;;17.98;15.85;;;13.80;99.90;;;;;;4953909;29;20034;-77
2022/04/22 09:09:51;;;;;;;17.90;15.25;;;14.10;99.90;;;;;;4935446;29;20038;-76
2022/04/22 09:12:25;;;;;;;16.55;14.65;;;14.40;99.90;;;;;;4950986;29;20107;-76
2022/04/22 09:14:56;;;;;;;17.00;14.88;;;14.50;99.90;;;;;;4956685;29;20027;-77
2022/04/22 09:17:42;;;;;;;17.92;15.30;;;14.50;99.90;;;;;;4931922;29;20034;-76
2022/04/22 09:20:13;;;;;;;19.20;14.80;;;14.60;99.90;;;;;;4937116;29;20505;-76
2022/04/22 09:22:38;;;;;;;;;;;14.60;99.90;;;;;;4937908;29;20039;-78
2022/04/22 09:25:05;;;;;;;15.50;13.93;;;14.40;99.90;;;;;;4954242;29;20428;-77
2022/04/22 09:27:36;;;;;;;16.45;14.25;;;14.50;99.90;;;;;;4952105;29;20050;-78
2022/04/22 09:30:04;;;;;;;17.98;15.52;;;14.50;99.90;;;;;;4958270;28;20050;-76
2022/04/22 09:32:31;;;;;;;15.60;14.10;;;14.50;99.90;;;;;;4955016;29;20030;-76
2022/04/22 09:35:15;;;;;;;19.70;14.30;;;14.60;99.90;;;;;;4955107;29;20027;-76
2022/04/22 09:43:45;;;;;;;15.18;13.57;;;14.50;99.90;;;;;;4953746;29;20045;-76
2022/04/22 09:46:30;;;;;;;15.10;13.70;;;14.50;99.90;;;;;;4946959;29;20107;-76
2022/04/22 09:48:56;;;;;;;15.95;14.25;;;14.40;99.90;;;;;;4953437;28;20442;-77
2022/04/22 09:51:27;;;;;;;16.48;14.35;;;14.70;99.90;;;;;;4949956;28;20024;-76
2022/04/22 09:54:22;;;;;;;16.08;14.43;;;15.10;99.90;;;;;;4958506;28;20110;-76
2022/04/22 09:56:57;;;;;;;17.98;13.98;;;14.80;99.90;;;;;;4940113;28;20107;-76
2022/04/22 09:59:25;;;;;;;14.98;13.48;;;15.10;99.80;;;;;;4946025;28;20091;-75
2022/04/22 10:01:51;;;;;;;14.45;13.13;;;15.20;99.60;;;;;;4950374;28;21223;-76
2022/04/22 10:04:22;;;;;;;14.35;12.95;;;14.90;99.90;;;;;;4956101;28;20034;-75
2022/04/22 10:06:49;;;;;;;14.98;13.43;;;15.40;99.60;;;;;;4936512;29;20029;-77
2022/04/22 10:09:15;;;;;;;15.20;13.70;;;15.80;98.40;;;;;;4954769;28;20035;-77
2022/04/22 10:11:43;;;;;;;15.85;12.45;;;15.80;98.20;;;;;;4935134;28;20081;-76
2022/04/22 10:14:10;;;;;;;13.55;12.25;;;15.90;98.50;;;;;;4951546;28;20071;-77
2022/04/22 10:16:36;;;;;;;14.13;12.82;;;15.80;97.80;;;;;;4948476;29;20047;-76
2022/04/22 10:19:03;;;;;;;12.35;11.25;;;15.90;97.80;;;;;;4952402;29;20075;-76
2022/04/22 10:21:29;;;;;;;13.25;11.77;;;15.70;98.40;;;;;;4951812;29;20066;-76
2022/04/22 10:23:56;;;;;;;13.98;12.60;;;16.10;97.70;;;;;;4935935;29;20059;-75
2022/04/22 10:26:22;;;;;;;12.73;11.52;;;16.30;97.90;;;;;;4949894;29;20089;-76
2022/04/22 10:28:49;;;;;;;13.18;11.98;;;16.40;97.50;;;;;;4945787;29;20016;-76
2022/04/22 10:31:15;;;;;;;12.98;11.77;;;16.50;96.80;;;;;;4946654;29;20106;-75
2022/04/22 10:33:45;;;;;;;12.82;11.43;;;16.40;96.90;;;;;;4935522;29;20027;-76
2022/04/22 10:36:13;;;;;;;11.73;10.50;;;16.60;96.70;;;;;;4928409;29;20027;-77
2022/04/22 10:38:40;;;;;;;17.40;11.93;;;16.80;96.50;;;;;;4945522;29;20015;-77
2022/04/22 10:41:18;;;;;;;11.68;10.43;;;16.70;96.10;;;;;;4928741;29;20114;-76
2022/04/22 10:47:13;;;;;;;12.93;11.68;;;16.80;95.90;;;;;;4953546;29;20031;-77
2022/04/22 10:49:38;;;;;;;12.15;10.93;;;17.00;95.50;;;;;;4945688;29;20386;-76
2022/04/22 10:52:11;;;;;;;12.32;11.13;;;17.20;95.40;;;;;;4935003;29;20023;-76
2022/04/22 10:54:52;;;;;;;12.52;11.43;;;17.50;95.00;;;;;;4951902;29;20019;-76
2022/04/22 10:57:29;;;;;;;13.88;12.57;;;17.30;95.30;;;;;;4951943;29;20475;-77
2022/04/22 11:00:03;;;;;;;12.90;11.15;;;16.80;95.60;;;;;;4947310;29;20105;-76
2022/04/22 11:02:30;;;;;;;15.70;12.23;;;17.20;95.40;;;;;;4954933;29;20088;-76
2022/04/22 11:05:20;;;;;;;13.55;12.05;;;17.30;95.40;;;;;;4933110;29;20086;-77
2022/04/22 11:07:53;;;;;;;14.18;12.77;;;17.50;95.40;;;;;;4953606;29;20082;-76
2022/04/22 11:10:19;;;;;;;13.38;12.13;;;17.10;95.60;;;;;;4954691;28;20030;-76
2022/04/22 11:12:58;;;;;;;13.27;11.90;;;17.20;95.30;;;;;;4953145;29;20118;-75
2022/04/22 11:15:42;;;;;;;14.65;11.55;;;17.00;95.60;;;;;;4937298;29;20443;-76
2022/04/22 11:18:09;;;;;;;14.18;12.63;;;17.50;95.30;;;;;;4951039;29;20073;-76
2022/04/22 11:20:35;;;;;;;12.68;11.27;;;17.50;94.70;;;;;;4951679;29;20031;-76
2022/04/22 11:23:03;;;;;;;13.05;11.73;;;17.60;94.40;;;;;;4955797;29;20438;-76
2022/04/22 11:25:29;;;;;;;12.50;11.25;;;17.70;94.20;;;;;;4942760;28;20023;-75
2022/04/22 11:27:56;;;;;;;12.57;11.30;;;18.00;94.30;;;;;;4952614;29;20023;-76
2022/04/22 11:30:22;;;;;;;12.65;11.32;;;18.10;93.80;;;;;;4955423;29;20102;-76
2022/04/22 11:32:56;;;;;;;13.80;12.45;;;18.00;94.20;;;;;;4943833;28;20032;-74
2022/04/22 11:35:22;;;;;;;16.40;13.82;;;18.00;93.90;;;;;;4965198;28;20047;-75
2022/04/22 11:38:04;;;;;;;14.20;12.75;;;18.00;94.20;;;;;;4954914;28;20062;-76
2022/04/22 11:40:35;;;;;;;12.43;11.32;;;17.50;94.50;;;;;;4938616;29;20024;-75
2022/04/22 11:43:14;;;;;;;12.35;11.07;;;17.80;93.80;;;;;;4941954;29;20106;-75
2022/04/22 11:45:49;;;;;;;11.45;10.35;;;17.70;93.50;;;;;;4938232;29;20051;-75
2022/04/22 11:48:19;;;;;;;12.55;11.45;;;18.00;93.10;;;;;;4961208;28;20038;-76
2022/04/22 11:50:46;;;;;;;10.95;9.95;;;18.40;92.60;;;;;;4954496;28;20027;-76
2022/04/22 11:53:18;;;;;;;11.70;10.57;;;18.70;92.10;;;;;;4958339;28;20039;-76
2022/04/22 11:55:45;;;;;;;11.95;10.80;;;18.50;91.70;;;;;;4966232;28;20047;-77
2022/04/22 11:58:12;;;;;;;10.68;9.40;;;18.20;91.80;;;;;;4955497;29;20035;-76
2022/04/22 12:06:13;;;;;;;10.85;9.85;;;18.30;91.90;;;;;;4953100;28;20114;-76
2022/04/22 12:08:50;;;;;;;12.13;10.95;;;17.90;92.70;;;;;;4957905;28;20397;-77
2022/04/22 12:11:16;;;;;;;11.27;10.27;;;18.40;92.00;;;;;;4949269;28;20118;-75
2022/04/22 12:13:42;;;;;;;12.02;10.70;;;18.70;91.70;;;;;;4938181;28;20065;-76
2022/04/22 12:16:07;;;;;;;11.20;10.10;;;19.00;91.40;;;;;;4958088;28;20508;-75
2022/04/22 12:18:39;;;;;;;11.85;9.57;;;18.60;91.20;;;;;;4936537;28;20050;-76
2022/04/22 12:21:06;;;;;;;11.23;9.48;;;18.70;91.70;;;;;;4954407;28;20023;-77
2022/04/22 12:23:34;;;;;;;12.32;11.23;;;18.90;91.50;;;;;;4948883;28;20030;-76
2022/04/22 12:26:00;;;;;;;11.57;10.48;;;19.00;91.00;;;;;;4939077;29;20374;-77
2022/04/22 12:28:27;;;;;;;11.93;10.70;;;18.70;90.90;;;;;;4954879;28;20036;-75
2022/04/22 12:30:53;;;;;;;11.63;10.63;;;17.90;91.70;;;;;;4936006;29;20464;-76
2022/04/22 12:33:26;;;;;;;10.82;9.73;;;18.30;91.70;;;;;;4948217;29;20023;-76
2022/04/22 12:36:10;;;;;;;11.18;10.00;;;18.70;91.20;;;;;;4933728;29;20182;-77
2022/04/22 12:38:37;;;;;;;11.43;10.27;;;18.80;91.10;;;;;;4950765;29;20023;-77
2022/04/22 12:41:14;;;;;;;11.88;10.65;;;18.40;91.30;;;;;;4953947;28;20133;-77
2022/04/22 12:43:46;;;;;;;12.20;10.20;;;18.90;91.00;;;;;;4937769;29;20513;-78
2022/04/22 12:52:24;;;;;;;12.25;10.27;;;19.20;89.80;;;;;;4955412;29;20037;-77
2022/04/22 12:54:50;;;;;;;10.77;9.00;;;19.10;90.00;;;;;;4958343;28;20406;-77
2022/04/22 12:57:22;;;;;;;11.38;10.38;;;19.10;90.10;;;;;;4953616;28;20024;-77
2022/04/22 12:59:55;;;;;;;9.88;8.98;;;19.20;89.50;;;;;;4953093;28;20098;-76
2022/04/22 13:02:34;;;;;;;10.45;8.50;;;19.00;90.00;;;;;;4952874;28;20042;-75
2022/04/22 13:05:02;;;;;;;9.35;8.55;;;18.90;90.00;;;;;;4951089;28;20041;-76
2022/04/22 13:07:42;;;;;;;9.02;8.20;;;19.20;89.40;;;;;;4958640;28;20561;-76
2022/04/22 13:10:09;;;;;;;10.05;9.15;;;19.10;88.90;;;;;;4952680;29;20059;-76
2022/04/22 13:12:39;;;;;;;11.82;10.73;;;19.00;88.30;;;;;;4937900;29;20028;-77
2022/04/22 13:15:09;;;;;;;9.32;8.52;;;18.80;89.40;;;;;;4946602;29;20031;-76
2022/04/22 13:17:43;;;;;;;11.32;9.77;;;19.20;89.10;;;;;;4951225;28;20114;-75
2022/04/22 13:20:09;;;;;;;11.90;10.80;;;19.40;88.20;;;;;;4953763;28;20031;-77
2022/04/22 13:22:35;;;;;;;10.32;9.43;;;18.80;88.80;;;;;;4939088;29;20031;-77
2022/04/22 13:25:01;;;;;;;12.48;11.15;;;19.00;88.90;;;;;;4954843;29;20046;-76
2022/04/22 13:27:27;;;;;;;11.57;9.43;;;19.40;88.50;;;;;;4949412;28;20054;-77
2022/04/22 13:29:52;;;;;;;11.48;10.38;;;19.70;87.20;;;;;;4951047;28;20090;-76
2022/04/22 13:32:18;;;;;;;11.52;9.23;;;19.40;86.40;;;;;;4952849;29;20486;-76
2022/04/22 13:34:43;;;;;;;9.80;8.80;;;19.40;86.20;;;;;;4951657;29;20434;-77
2022/04/22 13:37:09;;;;;;;9.98;8.95;;;19.30;86.80;;;;;;4949637;28;20065;-77